sensor_id;sensor_type;location;lat;lon;timestamp;pressure;altitude;pressure_sealevel;temperature;humidity
69171;BME280;56279;47.902;12.308;2022-11-04T00:01:05;94323.56;;;11.43;91.13
69171;BME280;56279;47.902;12.308;2022-11-04T00:03:07;94431.53;;;11.36;91.03
69171;BME280;56279;47.902;12.308;2022-11-04T00:05:08;94439.53;;;11.22;90.87
69171;BME280;56279;47.902;12.308;2022-11-04T00:07:09;94450.75;;;11.05;90.84
69171;BME280;56279;47.902;12.308;2022-11-04T00:09:30;94460.88;;;10.90;90.96
69171;BME280;56279;47.902;12.308;2022-11-04T00:11:31;94472.06;;;10.87;90.35
69171;BME280;56279;47.902;12.308;2022-11-04T00:13:52;94487.59;;;10.88;90.03
69171;BME280;56279;47.902;12.308;2022-11-04T00:15:54;94485.72;;;10.89;89.94
69171;BME280;56279;47.902;12.308;2022-11-04T00:18:14;94489.63;;;10.91;89.59
69171;BME280;56279;47.902;12.308;2022-11-04T00:20:15;94498.03;;;10.93;89.84
69171;BME280;56279;47.902;12.308;2022-11-04T00:22:36;94500.66;;;10.93;89.58
69171;BME280;56279;47.902;12.308;2022-11-04T00:24:56;94510.16;;;10.94;89.40
69171;BME280;56279;47.902;12.308;2022-11-04T00:27:18;94516.69;;;10.97;89.42
69171;BME280;56279;47.902;12.308;2022-11-04T00:29:39;94517.19;;;10.99;89.27
69171;BME280;56279;47.902;12.308;2022-11-04T00:31:40;94519.81;;;10.99;89.49
69171;BME280;56279;47.902;12.308;2022-11-04T00:34:00;94525.59;;;11.01;89.35
69171;BME280;56279;47.902;12.308;2022-11-04T00:36:01;94528.69;;;11.03;89.26
69171;BME280;56279;47.902;12.308;2022-11-04T00:38:03;94537.91;;;11.05;89.17
69171;BME280;56279;47.902;12.308;2022-11-04T00:40:06;94541.00;;;11.07;89.23
69171;BME280;56279;47.902;12.308;2022-11-04T00:42:07;94535.72;;;11.07;89.27
69171;BME280;56279;47.902;12.308;2022-11-04T00:44:09;94535.41;;;11.09;89.13
69171;BME280;56279;47.902;12.308;2022-11-04T00:46:10;94533.25;;;11.11;88.80
69171;BME280;56279;47.902;12.308;2022-11-04T00:48:11;94537.94;;;11.14;88.50
69171;BME280;56279;47.902;12.308;2022-11-04T00:50:12;94536.56;;;11.17;88.35
69171;BME280;56279;47.902;12.308;2022-11-04T00:52:14;94556.81;;;11.21;88.25
69171;BME280;56279;47.902;12.308;2022-11-04T00:54:15;94560.41;;;11.25;88.09
69171;BME280;56279;47.902;12.308;2022-11-04T00:56:17;94566.16;;;11.27;87.73
69171;BME280;56279;47.902;12.308;2022-11-04T00:58:18;94575.06;;;11.31;87.68
69171;BME280;56279;47.902;12.308;2022-11-04T01:00:19;94575.84;;;11.32;87.63
69171;BME280;56279;47.902;12.308;2022-11-04T01:02:20;94593.56;;;11.31;87.80
69171;BME280;56279;47.902;12.308;2022-11-04T01:04:22;94585.75;;;11.26;87.70
69171;BME280;56279;47.902;12.308;2022-11-04T01:06:25;94595.34;;;11.22;87.76
69171;BME280;56279;47.902;12.308;2022-11-04T01:08:26;94592.81;;;11.17;87.96
69171;BME280;56279;47.902;12.308;2022-11-04T01:10:27;94615.13;;;11.11;88.09
69171;BME280;56279;47.902;12.308;2022-11-04T01:12:29;94615.53;;;11.04;88.44
69171;BME280;56279;47.902;12.308;2022-11-04T01:14:30;94616.41;;;11.00;88.59
69171;BME280;56279;47.902;12.308;2022-11-04T01:16:31;94613.41;;;10.93;88.95
69171;BME280;56279;47.902;12.308;2022-11-04T01:18:33;94624.06;;;10.88;88.82
69171;BME280;56279;47.902;12.308;2022-11-04T01:20:34;94622.13;;;10.80;89.22
69171;BME280;56279;47.902;12.308;2022-11-04T01:22:36;94629.34;;;10.74;88.93
69171;BME280;56279;47.902;12.308;2022-11-04T01:24:37;94627.41;;;10.66;89.14
69171;BME280;56279;47.902;12.308;2022-11-04T01:26:38;94621.84;;;10.54;89.36
69171;BME280;56279;47.902;12.308;2022-11-04T01:28:40;94634.16;;;10.45;89.79
69171;BME280;56279;47.902;12.308;2022-11-04T01:30:41;94625.06;;;10.37;90.04
69171;BME280;56279;47.902;12.308;2022-11-04T01:32:42;94627.00;;;10.32;90.36
69171;BME280;56279;47.902;12.308;2022-11-04T01:34:45;94626.59;;;10.25;90.66
69171;BME280;56279;47.902;12.308;2022-11-04T01:36:46;94628.25;;;10.21;90.82
69171;BME280;56279;47.902;12.308;2022-11-04T01:38:47;94628.34;;;10.16;90.90
69171;BME280;56279;47.902;12.308;2022-11-04T01:40:49;94630.00;;;10.12;91.39
69171;BME280;56279;47.902;12.308;2022-11-04T01:42:50;94626.84;;;10.10;91.42
69171;BME280;56279;47.902;12.308;2022-11-04T01:44:57;94627.22;;;10.03;91.45
69171;BME280;56279;47.902;12.308;2022-11-04T01:47:01;94620.94;;;9.99;91.57
69171;BME280;56279;47.902;12.308;2022-11-04T01:49:23;94632.56;;;9.98;91.73
69171;BME280;56279;47.902;12.308;2022-11-04T01:51:29;94635.00;;;9.95;91.60
69171;BME280;56279;47.902;12.308;2022-11-04T01:53:36;94639.78;;;9.93;91.74
69171;BME280;56279;47.902;12.308;2022-11-04T01:55:43;94629.31;;;9.88;91.80
69171;BME280;56279;47.902;12.308;2022-11-04T01:57:49;94639.38;;;9.86;91.81
69171;BME280;56279;47.902;12.308;2022-11-04T01:59:51;94640.72;;;9.83;92.13
69171;BME280;56279;47.902;12.308;2022-11-04T02:01:53;94642.06;;;9.81;92.03
69171;BME280;56279;47.902;12.308;2022-11-04T02:03:58;94636.63;;;9.77;92.21
69171;BME280;56279;47.902;12.308;2022-11-04T02:06:19;94641.66;;;9.73;92.16
69171;BME280;56279;47.902;12.308;2022-11-04T02:08:22;94636.47;;;9.68;92.11
69171;BME280;56279;47.902;12.308;2022-11-04T02:10:26;94642.81;;;9.67;92.21
69171;BME280;56279;47.902;12.308;2022-11-04T02:12:28;94641.84;;;9.63;92.13
69171;BME280;56279;47.902;12.308;2022-11-04T02:14:49;94641.91;;;9.58;92.15
69171;BME280;56279;47.902;12.308;2022-11-04T02:16:54;94646.19;;;9.54;92.04
69171;BME280;56279;47.902;12.308;2022-11-04T02:19:11;94641.00;;;9.49;92.36
69171;BME280;56279;47.902;12.308;2022-11-04T02:21:32;94632.09;;;9.45;92.63
69171;BME280;56279;47.902;12.308;2022-11-04T02:28:40;94637.22;;;9.37;92.56
69171;BME280;56279;47.902;12.308;2022-11-04T02:30:53;94635.69;;;9.36;92.73
69171;BME280;56279;47.902;12.308;2022-11-04T02:33:09;94621.22;;;9.33;92.76
69171;BME280;56279;47.902;12.308;2022-11-04T02:39:50;94617.94;;;9.23;93.10
69171;BME280;56279;47.902;12.308;2022-11-04T02:42:03;94619.78;;;9.22;93.30
69171;BME280;56279;47.902;12.308;2022-11-04T02:44:20;94623.28;;;9.18;93.03
69171;BME280;56279;47.902;12.308;2022-11-04T02:46:34;94613.53;;;9.18;92.99
69171;BME280;56279;47.902;12.308;2022-11-04T02:48:40;94602.50;;;9.16;92.98
69171;BME280;56279;47.902;12.308;2022-11-04T02:50:51;94599.38;;;9.14;92.79
69171;BME280;56279;47.902;12.308;2022-11-04T02:53:05;94603.38;;;9.12;92.81
69171;BME280;56279;47.902;12.308;2022-11-04T02:55:26;94594.47;;;9.08;92.95
69171;BME280;56279;47.902;12.308;2022-11-04T02:57:31;94596.31;;;9.07;93.05
69171;BME280;56279;47.902;12.308;2022-11-04T02:59:46;94591.63;;;9.04;93.01
69171;BME280;56279;47.902;12.308;2022-11-04T03:01:51;94588.78;;;9.00;92.62
69171;BME280;56279;47.902;12.308;2022-11-04T03:04:00;94581.94;;;8.99;92.79
69171;BME280;56279;47.902;12.308;2022-11-04T03:06:03;94578.81;;;8.97;92.75
69171;BME280;56279;47.902;12.308;2022-11-04T03:08:12;94584.66;;;8.94;93.01
69171;BME280;56279;47.902;12.308;2022-11-04T03:10:19;94580.72;;;8.92;93.13
69171;BME280;56279;47.902;12.308;2022-11-04T03:12:27;94592.34;;;8.91;92.71
69171;BME280;56279;47.902;12.308;2022-11-04T03:14:35;94580.22;;;8.90;93.08
69171;BME280;56279;47.902;12.308;2022-11-04T03:16:53;94575.25;;;8.88;92.83
69171;BME280;56279;47.902;12.308;2022-11-04T03:19:22;94572.13;;;8.86;92.94
69171;BME280;56279;47.902;12.308;2022-11-04T03:21:27;94571.06;;;8.87;93.15
69171;BME280;56279;47.902;12.308;2022-11-04T03:23:31;94576.63;;;8.86;93.09
69171;BME280;56279;47.902;12.308;2022-11-04T03:25:37;94574.28;;;8.84;93.24
69171;BME280;56279;47.902;12.308;2022-11-04T03:28:02;94569.28;;;8.83;93.00
69171;BME280;56279;47.902;12.308;2022-11-04T03:34:40;94563.94;;;8.88;93.24
69171;BME280;56279;47.902;12.308;2022-11-04T03:36:41;94556.06;;;8.88;93.01
69171;BME280;56279;47.902;12.308;2022-11-04T03:38:43;94552.38;;;8.89;92.73
69171;BME280;56279;47.902;12.308;2022-11-04T03:40:44;94546.03;;;8.90;92.99
69171;BME280;56279;47.902;12.308;2022-11-04T03:42:56;94550.50;;;8.89;92.70
69171;BME280;56279;47.902;12.308;2022-11-04T03:44:59;94545.47;;;8.93;92.70
69171;BME280;56279;47.902;12.308;2022-11-04T03:47:00;94556.00;;;8.93;93.11
69171;BME280;56279;47.902;12.308;2022-11-04T03:49:01;94549.66;;;8.94;92.40
69171;BME280;56279;47.902;12.308;2022-11-04T03:51:03;94549.66;;;8.94;92.29
69171;BME280;56279;47.902;12.308;2022-11-04T03:53:04;94550.16;;;8.96;92.50
69171;BME280;56279;47.902;12.308;2022-11-04T03:55:07;94543.03;;;8.96;92.36
69171;BME280;56279;47.902;12.308;2022-11-04T04:06:34;94545.47;;;8.93;91.90
69171;BME280;56279;47.902;12.308;2022-11-04T04:08:44;94550.16;;;8.96;91.99
69171;BME280;56279;47.902;12.308;2022-11-04T04:18:57;94554.47;;;8.87;92.21
69171;BME280;56279;47.902;12.308;2022-11-04T04:21:01;94555.00;;;8.89;92.19
69171;BME280;56279;47.902;12.308;2022-11-04T04:23:10;94552.88;;;8.91;92.17
69171;BME280;56279;47.902;12.308;2022-11-04T04:25:31;94550.72;;;8.93;92.76
69171;BME280;56279;47.902;12.308;2022-11-04T04:27:52;94558.06;;;8.96;92.41
69171;BME280;56279;47.902;12.308;2022-11-04T04:30:14;94562.25;;;8.97;92.48
69171;BME280;56279;47.902;12.308;2022-11-04T04:32:17;94566.44;;;8.98;92.52
69171;BME280;56279;47.902;12.308;2022-11-04T04:34:26;94574.06;;;8.99;92.58
69171;BME280;56279;47.902;12.308;2022-11-04T04:36:30;94572.22;;;9.00;93.10
69171;BME280;56279;47.902;12.308;2022-11-04T04:38:34;94575.63;;;9.00;92.90
69171;BME280;56279;47.902;12.308;2022-11-04T04:41:02;94581.66;;;9.01;93.14
69171;BME280;56279;47.902;12.308;2022-11-04T04:43:23;94579.03;;;9.01;93.28
69171;BME280;56279;47.902;12.308;2022-11-04T04:45:48;94583.53;;;9.00;93.10
69171;BME280;56279;47.902;12.308;2022-11-04T04:47:51;94579.03;;;9.01;93.46
69171;BME280;56279;47.902;12.308;2022-11-04T04:49:54;94585.06;;;9.01;93.28
69171;BME280;56279;47.902;12.308;2022-11-04T04:51:56;94576.91;;;9.03;93.16
69171;BME280;56279;47.902;12.308;2022-11-04T04:53:57;94575.53;;;9.05;93.29
69171;BME280;56279;47.902;12.308;2022-11-04T04:55:58;94577.09;;;9.07;93.41
69171;BME280;56279;47.902;12.308;2022-11-04T04:57:59;94572.91;;;9.05;93.50
69171;BME280;56279;47.902;12.308;2022-11-04T05:00:02;94572.63;;;9.07;93.27
69171;BME280;56279;47.902;12.308;2022-11-04T05:02:03;94562.91;;;9.08;93.45
69171;BME280;56279;47.902;12.308;2022-11-04T05:04:04;94551.59;;;9.07;93.58
69171;BME280;56279;47.902;12.308;2022-11-04T05:06:06;94560.53;;;9.06;93.51
69171;BME280;56279;47.902;12.308;2022-11-04T05:08:07;94568.44;;;9.06;93.64
69171;BME280;56279;47.902;12.308;2022-11-04T05:10:11;94568.44;;;9.06;93.79
69171;BME280;56279;47.902;12.308;2022-11-04T05:12:12;94572.13;;;9.05;93.72
69171;BME280;56279;47.902;12.308;2022-11-04T05:14:14;94578.94;;;9.06;93.83
69171;BME280;56279;47.902;12.308;2022-11-04T05:16:15;94579.75;;;9.07;93.52
69171;BME280;56279;47.902;12.308;2022-11-04T05:18:17;94579.75;;;9.07;93.59
69171;BME280;56279;47.902;12.308;2022-11-04T05:20:18;94582.66;;;9.05;93.50
69171;BME280;56279;47.902;12.308;2022-11-04T05:22:19;94570.56;;;9.04;93.73
69171;BME280;56279;47.902;12.308;2022-11-04T05:24:20;94582.19;;;9.03;93.94
69171;BME280;56279;47.902;12.308;2022-11-04T05:26:22;94587.44;;;9.03;93.88
69171;BME280;56279;47.902;12.308;2022-11-04T05:28:23;94585.38;;;9.00;93.75
69171;BME280;56279;47.902;12.308;2022-11-04T05:30:24;94578.53;;;8.99;93.47
69171;BME280;56279;47.902;12.308;2022-11-04T05:32:30;94573.56;;;8.97;93.81
69171;BME280;56279;47.902;12.308;2022-11-04T05:34:32;94562.25;;;8.97;93.70
69171;BME280;56279;47.902;12.308;2022-11-04T05:36:33;94569.34;;;8.96;93.73
69171;BME280;56279;47.902;12.308;2022-11-04T05:38:35;94580.16;;;8.95;93.94
69171;BME280;56279;47.902;12.308;2022-11-04T05:40:37;94578.09;;;8.92;94.00
69171;BME280;56279;47.902;12.308;2022-11-04T05:42:38;94586.28;;;8.90;93.90
69171;BME280;56279;47.902;12.308;2022-11-04T05:44:39;94581.03;;;8.90;93.96
69171;BME280;56279;47.902;12.308;2022-11-04T05:46:40;94574.97;;;8.90;94.27
69171;BME280;56279;47.902;12.308;2022-11-04T05:48:42;94577.59;;;8.90;94.18
69171;BME280;56279;47.902;12.308;2022-11-04T05:50:43;94580.78;;;8.87;94.03
69171;BME280;56279;47.902;12.308;2022-11-04T05:52:44;94589.28;;;8.84;94.18
69171;BME280;56279;47.902;12.308;2022-11-04T05:54:45;94598.22;;;8.83;94.23
69171;BME280;56279;47.902;12.308;2022-11-04T05:56:47;94609.81;;;8.82;93.85
69171;BME280;56279;47.902;12.308;2022-11-04T05:58:48;94606.66;;;8.80;94.42
69171;BME280;56279;47.902;12.308;2022-11-04T06:00:49;94606.16;;;8.78;93.88
69171;BME280;56279;47.902;12.308;2022-11-04T06:02:51;94606.75;;;8.75;94.08
69171;BME280;56279;47.902;12.308;2022-11-04T06:04:52;94605.97;;;8.74;94.10
69171;BME280;56279;47.902;12.308;2022-11-04T06:06:53;94602.25;;;8.75;93.91
69171;BME280;56279;47.902;12.308;2022-11-04T06:08:55;94597.28;;;8.74;94.02
69171;BME280;56279;47.902;12.308;2022-11-04T06:10:57;94592.31;;;8.72;94.04
69171;BME280;56279;47.902;12.308;2022-11-04T06:12:58;94603.88;;;8.71;93.83
69171;BME280;56279;47.902;12.308;2022-11-04T06:14:59;94616.75;;;8.73;93.87
69171;BME280;56279;47.902;12.308;2022-11-04T06:17:01;94616.75;;;8.73;93.89
69171;BME280;56279;47.902;12.308;2022-11-04T06:19:02;94603.59;;;8.73;94.20
69171;BME280;56279;47.902;12.308;2022-11-04T06:21:21;94602.34;;;8.70;94.04
69171;BME280;56279;47.902;12.308;2022-11-04T06:23:25;94609.44;;;8.70;93.79
69171;BME280;56279;47.902;12.308;2022-11-04T06:25:26;94606.81;;;8.70;94.03
69171;BME280;56279;47.902;12.308;2022-11-04T06:27:27;94606.03;;;8.69;93.72
69171;BME280;56279;47.902;12.308;2022-11-04T06:29:28;94600.75;;;8.69;93.56
69171;BME280;56279;47.902;12.308;2022-11-04T06:31:30;94604.44;;;8.68;93.67
69171;BME280;56279;47.902;12.308;2022-11-04T06:33:31;94608.94;;;8.68;93.69
69171;BME280;56279;47.902;12.308;2022-11-04T06:35:33;94610.00;;;8.67;93.81
69171;BME280;56279;47.902;12.308;2022-11-04T06:37:35;94617.41;;;8.65;93.81
69171;BME280;56279;47.902;12.308;2022-11-04T06:39:37;94616.59;;;8.64;94.18
69171;BME280;56279;47.902;12.308;2022-11-04T06:41:39;94611.63;;;8.63;93.84
69171;BME280;56279;47.902;12.308;2022-11-04T06:43:40;94601.13;;;8.63;94.03
69171;BME280;56279;47.902;12.308;2022-11-04T06:45:41;94591.16;;;8.60;93.92
69171;BME280;56279;47.902;12.308;2022-11-04T06:47:43;94568.56;;;8.59;93.82
69171;BME280;56279;47.902;12.308;2022-11-04T06:49:44;94559.88;;;8.58;94.03
69171;BME280;56279;47.902;12.308;2022-11-04T06:51:46;94581.97;;;8.57;93.53
69171;BME280;56279;47.902;12.308;2022-11-04T06:53:48;94599.59;;;8.57;94.41
69171;BME280;56279;47.902;12.308;2022-11-04T06:55:50;94614.63;;;8.56;93.49
69171;BME280;56279;47.902;12.308;2022-11-04T06:57:51;94612.53;;;8.53;93.66
69171;BME280;56279;47.902;12.308;2022-11-04T06:59:53;94623.06;;;8.53;94.14
69171;BME280;56279;47.902;12.308;2022-11-04T07:01:54;94628.59;;;8.52;93.98
69171;BME280;56279;47.902;12.308;2022-11-04T07:03:58;94633.34;;;8.50;93.97
69171;BME280;56279;47.902;12.308;2022-11-04T07:06:04;94631.50;;;8.50;94.13
69171;BME280;56279;47.902;12.308;2022-11-04T07:08:06;94632.28;;;8.51;94.10
69171;BME280;56279;47.902;12.308;2022-11-04T07:10:07;94628.88;;;8.50;93.88
69171;BME280;56279;47.902;12.308;2022-11-04T07:12:09;94615.72;;;8.50;93.81
69171;BME280;56279;47.902;12.308;2022-11-04T07:14:11;94632.56;;;8.49;93.90
69171;BME280;56279;47.902;12.308;2022-11-04T07:16:12;94639.44;;;8.45;94.22
69171;BME280;56279;47.902;12.308;2022-11-04T07:18:14;94639.22;;;8.42;94.16
69171;BME280;56279;47.902;12.308;2022-11-04T07:20:15;94648.94;;;8.41;94.13
69171;BME280;56279;47.902;12.308;2022-11-04T07:22:16;94653.41;;;8.41;93.89
69171;BME280;56279;47.902;12.308;2022-11-04T07:24:18;94662.66;;;8.38;94.35
69171;BME280;56279;47.902;12.308;2022-11-04T07:26:19;94676.56;;;8.39;94.22
69171;BME280;56279;47.902;12.308;2022-11-04T07:28:20;94675.28;;;8.36;94.25
69171;BME280;56279;47.902;12.308;2022-11-04T07:30:21;94678.69;;;8.37;94.49
69171;BME280;56279;47.902;12.308;2022-11-04T07:32:23;94676.63;;;8.33;93.86
69171;BME280;56279;47.902;12.308;2022-11-04T07:34:24;94672.44;;;8.32;93.88
69171;BME280;56279;47.902;12.308;2022-11-04T07:36:25;94672.69;;;8.31;93.88
69171;BME280;56279;47.902;12.308;2022-11-04T07:38:27;94674.03;;;8.28;93.83
69171;BME280;56279;47.902;12.308;2022-11-04T07:40:29;94685.09;;;8.25;93.97
69171;BME280;56279;47.902;12.308;2022-11-04T07:42:30;94685.34;;;8.24;94.03
69171;BME280;56279;47.902;12.308;2022-11-04T07:44:39;94676.19;;;8.21;94.12
69171;BME280;56279;47.902;12.308;2022-11-04T07:46:40;94676.97;;;8.22;94.10
69171;BME280;56279;47.902;12.308;2022-11-04T07:48:41;94668.59;;;8.20;93.89
69171;BME280;56279;47.902;12.308;2022-11-04T07:50:43;94653.09;;;8.18;93.91
69171;BME280;56279;47.902;12.308;2022-11-04T07:52:44;94655.72;;;8.18;93.93
69171;BME280;56279;47.902;12.308;2022-11-04T07:54:45;94647.06;;;8.18;93.94
69171;BME280;56279;47.902;12.308;2022-11-04T07:56:47;94642.84;;;8.17;94.04
69171;BME280;56279;47.902;12.308;2022-11-04T07:58:48;94637.88;;;8.15;94.04
69171;BME280;56279;47.902;12.308;2022-11-04T08:00:50;94649.47;;;8.14;93.78
69171;BME280;56279;47.902;12.308;2022-11-04T08:02:57;94654.97;;;8.13;94.07
69171;BME280;56279;47.902;12.308;2022-11-04T08:04:58;94648.19;;;8.12;94.25
69171;BME280;56279;47.902;12.308;2022-11-04T08:06:59;94640.84;;;8.09;94.20
69171;BME280;56279;47.902;12.308;2022-11-04T08:09:01;94637.72;;;8.07;94.33
69171;BME280;56279;47.902;12.308;2022-11-04T08:11:11;94639.03;;;8.04;94.43
69171;BME280;56279;47.902;12.308;2022-11-04T08:13:13;94637.22;;;8.05;93.85
69171;BME280;56279;47.902;12.308;2022-11-04T08:15:14;94639.03;;;8.04;94.09
69171;BME280;56279;47.902;12.308;2022-11-04T08:17:16;94639.84;;;8.05;94.42
69171;BME280;56279;47.902;12.308;2022-11-04T08:19:17;94634.84;;;8.03;94.14
69171;BME280;56279;47.902;12.308;2022-11-04T08:21:19;94636.69;;;8.03;93.97
69171;BME280;56279;47.902;12.308;2022-11-04T08:23:21;94629.06;;;8.01;94.13
69171;BME280;56279;47.902;12.308;2022-11-04T08:25:22;94623.81;;;8.01;94.38
69171;BME280;56279;47.902;12.308;2022-11-04T08:27:23;94621.19;;;8.01;93.88
69171;BME280;56279;47.902;12.308;2022-11-04T08:29:24;94628.03;;;8.02;93.97
69171;BME280;56279;47.902;12.308;2022-11-04T08:31:28;94635.13;;;8.02;93.66
69171;BME280;56279;47.902;12.308;2022-11-04T08:33:32;94642.22;;;8.01;93.95
69171;BME280;56279;47.902;12.308;2022-11-04T08:35:34;94628.03;;;8.02;93.93
69171;BME280;56279;47.902;12.308;2022-11-04T08:37:35;94631.16;;;8.04;93.81
69171;BME280;56279;47.902;12.308;2022-11-04T08:39:36;94615.66;;;8.03;93.74
69171;BME280;56279;47.902;12.308;2022-11-04T08:41:41;94607.84;;;7.98;93.16
69171;BME280;56279;47.902;12.308;2022-11-04T08:43:43;94607.59;;;7.94;93.19
69171;BME280;56279;47.902;12.308;2022-11-04T08:45:45;94609.22;;;7.90;93.08
69171;BME280;56279;47.902;12.308;2022-11-04T08:47:46;94613.19;;;7.88;93.07
69171;BME280;56279;47.902;12.308;2022-11-04T08:49:48;94625.31;;;7.84;93.05
69171;BME280;56279;47.902;12.308;2022-11-04T08:51:49;94626.16;;;7.79;92.90
69171;BME280;56279;47.902;12.308;2022-11-04T08:53:56;94633.22;;;7.79;93.59
69171;BME280;56279;47.902;12.308;2022-11-04T08:55:58;94620.94;;;7.74;92.64
69171;BME280;56279;47.902;12.308;2022-11-04T08:58:00;94606.25;;;7.68;92.49
69171;BME280;56279;47.902;12.308;2022-11-04T09:00:03;94604.19;;;7.65;92.54
69171;BME280;56279;47.902;12.308;2022-11-04T09:02:05;94591.63;;;7.62;92.67
69171;BME280;56279;47.902;12.308;2022-11-04T09:04:06;94592.94;;;7.59;92.66
69171;BME280;56279;47.902;12.308;2022-11-04T09:06:11;94595.06;;;7.57;92.71
69171;BME280;56279;47.902;12.308;2022-11-04T09:08:16;94595.34;;;7.56;93.03
69171;BME280;56279;47.902;12.308;2022-11-04T09:10:18;94594.28;;;7.57;93.13
69171;BME280;56279;47.902;12.308;2022-11-04T09:12:19;94592.44;;;7.57;93.07
69171;BME280;56279;47.902;12.308;2022-11-04T09:14:21;94594.78;;;7.59;93.14
69171;BME280;56279;47.902;12.308;2022-11-04T09:16:23;94584.28;;;7.59;92.88
69171;BME280;56279;47.902;12.308;2022-11-04T09:18:25;94585.88;;;7.60;93.02
69171;BME280;56279;47.902;12.308;2022-11-04T09:20:26;94579.53;;;7.61;93.11
69171;BME280;56279;47.902;12.308;2022-11-04T09:22:27;94581.41;;;7.60;92.95
69171;BME280;56279;47.902;12.308;2022-11-04T09:24:28;94577.47;;;7.58;93.23
69171;BME280;56279;47.902;12.308;2022-11-04T09:26:30;94580.38;;;7.56;93.27
69171;BME280;56279;47.902;12.308;2022-11-04T09:28:31;94573.56;;;7.55;93.39
69171;BME280;56279;47.902;12.308;2022-11-04T09:30:32;94589.31;;;7.55;93.38
69171;BME280;56279;47.902;12.308;2022-11-04T09:32:34;94588.03;;;7.53;93.12
69171;BME280;56279;47.902;12.308;2022-11-04T09:34:35;94581.19;;;7.52;93.13
69171;BME280;56279;47.902;12.308;2022-11-04T09:36:36;94578.56;;;7.52;93.45
69171;BME280;56279;47.902;12.308;2022-11-04T09:38:39;94597.22;;;7.50;93.20
69171;BME280;56279;47.902;12.308;2022-11-04T09:40:41;94601.19;;;7.48;93.26
69171;BME280;56279;47.902;12.308;2022-11-04T09:45:11;94599.09;;;7.45;93.16
69171;BME280;56279;47.902;12.308;2022-11-04T09:47:13;94593.09;;;7.44;93.63
69171;BME280;56279;47.902;12.308;2022-11-04T09:49:16;94588.88;;;7.43;93.27
69171;BME280;56279;47.902;12.308;2022-11-04T09:51:19;94582.59;;;7.44;93.24
69171;BME280;56279;47.902;12.308;2022-11-04T09:53:26;94570.25;;;7.40;93.53
69171;BME280;56279;47.902;12.308;2022-11-04T09:55:33;94576.88;;;7.37;93.81
69171;BME280;56279;47.902;12.308;2022-11-04T09:57:35;94591.31;;;7.35;93.40
69171;BME280;56279;47.902;12.308;2022-11-04T09:59:36;94594.19;;;7.33;93.42
69171;BME280;56279;47.902;12.308;2022-11-04T10:01:52;94593.69;;;7.31;93.63
69171;BME280;56279;47.902;12.308;2022-11-04T10:04:00;94603.41;;;7.31;93.62
69171;BME280;56279;47.902;12.308;2022-11-04T10:06:32;94598.44;;;7.29;93.21
69171;BME280;56279;47.902;12.308;2022-11-04T10:08:55;94593.72;;;7.26;93.32
69171;BME280;56279;47.902;12.308;2022-11-04T10:15:54;94589.78;;;7.29;93.51
69171;BME280;56279;47.902;12.308;2022-11-04T10:22:57;94602.34;;;7.32;93.90
69171;BME280;56279;47.902;12.308;2022-11-04T10:27:20;94594.19;;;7.33;93.63
69171;BME280;56279;47.902;12.308;2022-11-04T10:31:39;94583.69;;;7.33;93.44
69171;BME280;56279;47.902;12.308;2022-11-04T10:33:50;94587.66;;;7.31;93.39
69171;BME280;56279;47.902;12.308;2022-11-04T10:36:00;94590.28;;;7.31;93.80
69171;BME280;56279;47.902;12.308;2022-11-04T10:40:32;94571.38;;;7.34;93.95
69171;BME280;56279;47.902;12.308;2022-11-04T10:42:38;94566.91;;;7.34;93.92
69171;BME280;56279;47.902;12.308;2022-11-04T10:44:39;94573.22;;;7.33;93.77
69171;BME280;56279;47.902;12.308;2022-11-04T10:46:44;94571.66;;;7.32;93.65
69171;BME280;56279;47.902;12.308;2022-11-04T10:48:52;94566.66;;;7.31;93.43
69171;BME280;56279;47.902;12.308;2022-11-04T10:50:57;94571.16;;;7.30;93.55
69171;BME280;56279;47.902;12.308;2022-11-04T10:53:14;94561.47;;;7.26;93.95
69171;BME280;56279;47.902;12.308;2022-11-04T10:57:28;94568.59;;;7.20;93.67
69171;BME280;56279;47.902;12.308;2022-11-04T10:59:58;94571.75;;;7.17;93.39
69171;BME280;56279;47.902;12.308;2022-11-04T11:02:01;94563.63;;;7.19;93.91
69171;BME280;56279;47.902;12.308;2022-11-04T11:04:05;94575.16;;;7.18;93.49
69171;BME280;56279;47.902;12.308;2022-11-04T11:06:32;94593.53;;;7.18;94.08
69171;BME280;56279;47.902;12.308;2022-11-04T11:08:34;94611.91;;;7.18;93.56
69171;BME280;56279;47.902;12.308;2022-11-04T11:10:50;94612.19;;;7.16;93.78
69171;BME280;56279;47.902;12.308;2022-11-04T11:12:58;94609.56;;;7.16;94.11
69171;BME280;56279;47.902;12.308;2022-11-04T11:15:24;94613.50;;;7.14;94.13
69171;BME280;56279;47.902;12.308;2022-11-04T11:17:35;94615.63;;;7.12;93.98
69171;BME280;56279;47.902;12.308;2022-11-04T11:19:46;94612.47;;;7.10;94.01
69171;BME280;56279;47.902;12.308;2022-11-04T11:21:55;94602.53;;;7.07;94.00
69171;BME280;56279;47.902;12.308;2022-11-04T11:24:12;94607.53;;;7.03;93.78
69171;BME280;56279;47.902;12.308;2022-11-04T11:26:20;94609.34;;;7.03;93.71
69171;BME280;56279;47.902;12.308;2022-11-04T11:28:23;94604.13;;;7.03;94.02
69171;BME280;56279;47.902;12.308;2022-11-04T11:30:52;94604.41;;;7.01;93.77
69171;BME280;56279;47.902;12.308;2022-11-04T11:32:58;94607.84;;;6.96;94.08
69171;BME280;56279;47.902;12.308;2022-11-04T11:35:01;94628.31;;;6.94;93.74
69171;BME280;56279;47.902;12.308;2022-11-04T11:37:20;94635.38;;;6.94;94.16
69171;BME280;56279;47.902;12.308;2022-11-04T11:39:29;94618.84;;;6.93;93.70
69171;BME280;56279;47.902;12.308;2022-11-04T11:41:34;94603.91;;;6.94;93.58
69171;BME280;56279;47.902;12.308;2022-11-04T11:43:39;94600.78;;;6.92;92.94
69171;BME280;56279;47.902;12.308;2022-11-04T11:45:47;94615.00;;;6.86;93.02
69171;BME280;56279;47.902;12.308;2022-11-04T11:47:49;94630.44;;;6.87;92.89
69171;BME280;56279;47.902;12.308;2022-11-04T11:54:35;94612.78;;;6.98;93.11
69171;BME280;56279;47.902;12.308;2022-11-04T11:56:41;94607.56;;;6.98;93.06
69171;BME280;56279;47.902;12.308;2022-11-04T11:58:50;94595.25;;;6.93;93.32